Alba Rousing — OVIL2 — position and weather

sailwx.info

Track history (hours):
 
Tides and Currents Weather Stations Pressure Air Temp Water Temp Dewpoint Dewpoint Depression Visibility Wind Speed Wind Dir Waves Ship Positions

Alba Rousing

Last reported at 2017-Mar-24 07:31 UTC. Time now 2017-Mar-24 08:08 UTC.
Position N 54°60' E 011°53'.

Length 79 m; draft 2.7 m.

Type: Ship. MMSI: 220439000.

Date/timePositionNaut miles runAvg speedWind from/ knotsBaromVisibWave heightAir tempDewpointWater temp
2017-Mar-24 07:31N 54°60' E 011°53'0 0.0
2017-Mar-24 06:31N 54°60' E 011°53'0 0.0
2017-Mar-24 05:14N 54°60' E 011°53'0 0.0
2017-Mar-24 04:14N 54°60' E 011°53'0 0.0
2017-Mar-24 01:32N 54°60' E 011°53'0 0.0
2017-Mar-24 00:32N 54°60' E 011°53'0 0.0
2017-Mar-23 23:33N 54°60' E 011°53'13 1.3
2017-Mar-23 13:11N 54°51' E 012°10'5 8.1
2017-Mar-23 12:33N 54°47' E 012°15'1 0.7
2017-Mar-23 10:33N 54°48' E 012°17'29 0.9
2017-Mar-22 01:31N 55°14' E 012°39'6 6.5
2017-Mar-22 00:33N 55°20' E 012°38'7 7.1
2017-Mar-21 23:33N 55°27' E 012°40'8 7.7
2017-Mar-21 22:33N 55°35' E 012°42'9 9.1
2017-Mar-21 21:33N 55°44' E 012°41'9 8.6
2017-Mar-21 20:33N 55°52' E 012°39'8 8.4
2017-Mar-21 19:33N 56°01' E 012°38'9 8.5
2017-Mar-21 18:33N 56°07' E 012°28'9 8.9
2017-Mar-21 17:33N 56°09' E 012°12'9 9.3
2017-Mar-21 16:32N 56°03' E 011°59'8 8.3
2017-Mar-21 15:33N 55°57' E 011°50'5 5.1
2017-Mar-21 14:33N 55°57' E 011°59'1 0.2
2017-Mar-21 06:04N 55°58' E 012°01'0 0.0
2017-Mar-20 19:13N 55°58' E 012°01'0 0.0
2017-Mar-20 18:31N 55°58' E 012°01'57 2.5
2017-Mar-19 19:34N 55°05' E 011°23'6 5.6
2017-Mar-19 18:33N 55°03' E 011°32'32 7.5
2017-Mar-19 14:17N 54°49' E 012°23'112 7.6
2017-Mar-18 23:33N 53°30' E 014°37'3 3.1
2017-Mar-18 22:33N 53°27' E 014°35'0 0.0
2017-Mar-18 21:33N 53°27' E 014°35'0 0.0
2017-Mar-18 20:33N 53°27' E 014°35'0 0.0
2017-Mar-18 19:33N 53°27' E 014°35'0 0.0
2017-Mar-18 18:33N 53°27' E 014°35'0 0.0
2017-Mar-18 17:33N 53°27' E 014°35'0 0.0
2017-Mar-18 16:33N 53°27' E 014°35'0 0.0
2017-Mar-18 15:33N 53°27' E 014°35'0 0.0
2017-Mar-18 14:33N 53°27' E 014°35'0 0.0
2017-Mar-18 13:33N 53°27' E 014°35'0 0.0
2017-Mar-18 12:33N 53°27' E 014°35'0 0.0
2017-Mar-18 11:33N 53°27' E 014°35'0 0.0
2017-Mar-18 10:33N 53°27' E 014°35'0 0.0
2017-Mar-18 09:33N 53°27' E 014°35'0 0.0
2017-Mar-18 08:33N 53°27' E 014°35'0 0.0
2017-Mar-18 07:33N 53°27' E 014°35'0 0.0
2017-Mar-18 06:33N 53°27' E 014°35'0 0.0
2017-Mar-18 05:33N 53°27' E 014°35'0 0.0
2017-Mar-18 04:28N 53°27' E 014°35'0 0.0
2017-Mar-18 03:33N 53°27' E 014°35'0 0.0
2017-Mar-18 02:33N 53°27' E 014°35'0 0.0
2017-Mar-18 01:33N 53°27' E 014°35'0 0.0
2017-Mar-18 00:33N 53°27' E 014°35'0 0.0
2017-Mar-17 23:33N 53°27' E 014°35'0 0.0
2017-Mar-17 22:33N 53°27' E 014°35'0 0.0
2017-Mar-17 21:33N 53°27' E 014°35'0 0.0
2017-Mar-17 20:33N 53°27' E 014°35'0 0.0
2017-Mar-17 19:33N 53°27' E 014°35'0 0.0
2017-Mar-17 18:33N 53°27' E 014°35'0 0.0
2017-Mar-17 17:33N 53°27' E 014°35'0 0.0
2017-Mar-17 16:33N 53°27' E 014°35'0 0.4
2017-Mar-17 15:33N 53°27' E 014°36'8 8.1
2017-Mar-17 14:33N 53°35' E 014°36'9 8.6
2017-Mar-17 13:33N 53°42' E 014°29'120 6.9
2017-Mar-16 20:12N 54°59' E 011°51'5 7.9
2017-Mar-16 19:33N 55°01' E 011°42'9 9.2
2017-Mar-16 18:33N 55°03' E 011°27'6 6.0
2017-Mar-16 17:33N 54°60' E 011°18'9 8.8
2017-Mar-16 16:33N 54°53' E 011°28'3 2.9
2017-Mar-16 15:32N 54°50' E 011°29'0 0.0
2017-Mar-16 14:32N 54°50' E 011°29'0 0.0
2017-Mar-16 13:32N 54°50' E 011°29'0 0.0
2017-Mar-16 12:32N 54°50' E 011°29'0 0.0
2017-Mar-16 11:29N 54°50' E 011°29'0 0.0
2017-Mar-16 10:32N 54°50' E 011°29'0 0.0
2017-Mar-16 09:33N 54°50' E 011°29'5 5.0
2017-Mar-16 08:33N 54°54' E 011°24'8 8.3
2017-Mar-16 07:33N 55°01' E 011°16'6 6.4
2017-Mar-16 06:33N 55°03' E 011°27'8 8.2
2017-Mar-16 05:33N 55°01' E 011°41'7 7.3
2017-Mar-16 04:33N 54°58' E 011°53'22 6.5
2017-Mar-16 01:06N 54°50' E 012°29'51 6.7
2017-Mar-15 17:33N 55°03' E 013°55'7 6.8
2017-Mar-15 16:33N 55°05' E 014°06'6 5.8
2017-Mar-15 15:33N 55°07' E 014°16'5 5.3
2017-Mar-15 14:31N 55°06' E 014°25'6 5.8
2017-Mar-15 13:33N 55°06' E 014°35'4 3.8
2017-Mar-15 12:32N 55°06' E 014°42'0 0.0
2017-Mar-15 11:32N 55°06' E 014°42'0 0.0
2017-Mar-15 10:31N 55°06' E 014°42'0 0.0
2017-Mar-15 09:32N 55°06' E 014°42'0 0.0
2017-Mar-15 08:32N 55°06' E 014°42'0 0.0
2017-Mar-15 07:32N 55°06' E 014°42'0 0.0
2017-Mar-15 06:32N 55°06' E 014°42'0 0.0
2017-Mar-15 05:31N 55°06' E 014°42'0 0.0
2017-Mar-15 04:32N 55°06' E 014°42'0 0.0
2017-Mar-15 03:32N 55°06' E 014°42'0 0.0
2017-Mar-15 02:33N 55°06' E 014°42'0 0.0
2017-Mar-15 01:33N 55°06' E 014°42'0 0.0
2017-Mar-15 00:33N 55°06' E 014°42'0 0.0
2017-Mar-14 23:30N 55°06' E 014°42'0 0.0
2017-Mar-14 22:33N 55°06' E 014°42'0 0.1
2017-Mar-14 21:34N 55°06' E 014°42'9 8.5
2017-Mar-14 20:33N 55°06' E 014°27'9 9.3
2017-Mar-14 19:33N 55°08' E 014°11'9 8.9
2017-Mar-14 18:33N 55°09' E 013°55'37 9.1
2017-Mar-14 14:33N 55°15' E 012°52'8 7.8
2017-Mar-14 13:33N 55°18' E 012°39'7 7.2
2017-Mar-14 12:33N 55°25' E 012°40'8 7.9
2017-Mar-14 11:33N 55°33' E 012°42'9 8.9
2017-Mar-14 10:33N 55°42' E 012°41'8 7.9
2017-Mar-14 09:33N 55°50' E 012°41'8 7.6
2017-Mar-14 08:33N 55°57' E 012°38'7 6.7
2017-Mar-14 07:33N 56°04' E 012°37'  
Track history (hours):
 
Tides and Currents Weather Stations Pressure Air Temp Water Temp Dewpoint Dewpoint Depression Visibility Wind Speed Wind Dir Waves Ship Positions

Alba Rousing

Last reported at 2017-Mar-24 07:31 UTC. Time now 2017-Mar-24 08:08 UTC.
Position N 54°60' E 011°53'.

Length 79 m; draft 2.7 m.

Type: Ship. MMSI: 220439000.

Date/timePositionNaut miles runAvg speedWind from/ knotsBaromVisibWave heightAir tempDewpointWater temp
2017-Mar-24 07:31N 54°60' E 011°53'0 0.0
2017-Mar-24 06:31N 54°60' E 011°53'0 0.0
2017-Mar-24 05:14N 54°60' E 011°53'0 0.0
2017-Mar-24 04:14N 54°60' E 011°53'0 0.0
2017-Mar-24 01:32N 54°60' E 011°53'0 0.0
2017-Mar-24 00:32N 54°60' E 011°53'0 0.0
2017-Mar-23 23:33N 54°60' E 011°53'13 1.3
2017-Mar-23 13:11N 54°51' E 012°10'5 8.1
2017-Mar-23 12:33N 54°47' E 012°15'1 0.7
2017-Mar-23 10:33N 54°48' E 012°17'29 0.9
2017-Mar-22 01:31N 55°14' E 012°39'6 6.5
2017-Mar-22 00:33N 55°20' E 012°38'7 7.1
2017-Mar-21 23:33N 55°27' E 012°40'8 7.7
2017-Mar-21 22:33N 55°35' E 012°42'9 9.1
2017-Mar-21 21:33N 55°44' E 012°41'9 8.6
2017-Mar-21 20:33N 55°52' E 012°39'8 8.4
2017-Mar-21 19:33N 56°01' E 012°38'9 8.5
2017-Mar-21 18:33N 56°07' E 012°28'9 8.9
2017-Mar-21 17:33N 56°09' E 012°12'9 9.3
2017-Mar-21 16:32N 56°03' E 011°59'8 8.3
2017-Mar-21 15:33N 55°57' E 011°50'5 5.1
2017-Mar-21 14:33N 55°57' E 011°59'1 0.2
2017-Mar-21 06:04N 55°58' E 012°01'0 0.0
2017-Mar-20 19:13N 55°58' E 012°01'0 0.0
2017-Mar-20 18:31N 55°58' E 012°01'57 2.5
2017-Mar-19 19:34N 55°05' E 011°23'6 5.6
2017-Mar-19 18:33N 55°03' E 011°32'32 7.5
2017-Mar-19 14:17N 54°49' E 012°23'112 7.6
2017-Mar-18 23:33N 53°30' E 014°37'3 3.1
2017-Mar-18 22:33N 53°27' E 014°35'0 0.0
2017-Mar-18 21:33N 53°27' E 014°35'0 0.0
2017-Mar-18 20:33N 53°27' E 014°35'0 0.0
2017-Mar-18 19:33N 53°27' E 014°35'0 0.0
2017-Mar-18 18:33N 53°27' E 014°35'0 0.0
2017-Mar-18 17:33N 53°27' E 014°35'0 0.0
2017-Mar-18 16:33N 53°27' E 014°35'0 0.0
2017-Mar-18 15:33N 53°27' E 014°35'0 0.0
2017-Mar-18 14:33N 53°27' E 014°35'0 0.0
2017-Mar-18 13:33N 53°27' E 014°35'0 0.0
2017-Mar-18 12:33N 53°27' E 014°35'0 0.0
2017-Mar-18 11:33N 53°27' E 014°35'0 0.0
2017-Mar-18 10:33N 53°27' E 014°35'0 0.0
2017-Mar-18 09:33N 53°27' E 014°35'0 0.0
2017-Mar-18 08:33N 53°27' E 014°35'0 0.0
2017-Mar-18 07:33N 53°27' E 014°35'0 0.0
2017-Mar-18 06:33N 53°27' E 014°35'0 0.0
2017-Mar-18 05:33N 53°27' E 014°35'0 0.0
2017-Mar-18 04:28N 53°27' E 014°35'0 0.0
2017-Mar-18 03:33N 53°27' E 014°35'0 0.0
2017-Mar-18 02:33N 53°27' E 014°35'0 0.0
2017-Mar-18 01:33N 53°27' E 014°35'0 0.0
2017-Mar-18 00:33N 53°27' E 014°35'0 0.0
2017-Mar-17 23:33N 53°27' E 014°35'0 0.0
2017-Mar-17 22:33N 53°27' E 014°35'0 0.0
2017-Mar-17 21:33N 53°27' E 014°35'0 0.0
2017-Mar-17 20:33N 53°27' E 014°35'0 0.0
2017-Mar-17 19:33N 53°27' E 014°35'0 0.0
2017-Mar-17 18:33N 53°27' E 014°35'0 0.0
2017-Mar-17 17:33N 53°27' E 014°35'0 0.0
2017-Mar-17 16:33N 53°27' E 014°35'0 0.4
2017-Mar-17 15:33N 53°27' E 014°36'8 8.1
2017-Mar-17 14:33N 53°35' E 014°36'9 8.6
2017-Mar-17 13:33N 53°42' E 014°29'120 6.9
2017-Mar-16 20:12N 54°59' E 011°51'5 7.9
2017-Mar-16 19:33N 55°01' E 011°42'9 9.2
2017-Mar-16 18:33N 55°03' E 011°27'6 6.0
2017-Mar-16 17:33N 54°60' E 011°18'9 8.8
2017-Mar-16 16:33N 54°53' E 011°28'3 2.9
2017-Mar-16 15:32N 54°50' E 011°29'0 0.0
2017-Mar-16 14:32N 54°50' E 011°29'0 0.0
2017-Mar-16 13:32N 54°50' E 011°29'0 0.0
2017-Mar-16 12:32N 54°50' E 011°29'0 0.0
2017-Mar-16 11:29N 54°50' E 011°29'0 0.0
2017-Mar-16 10:32N 54°50' E 011°29'0 0.0
2017-Mar-16 09:33N 54°50' E 011°29'5 5.0
2017-Mar-16 08:33N 54°54' E 011°24'8 8.3
2017-Mar-16 07:33N 55°01' E 011°16'6 6.4
2017-Mar-16 06:33N 55°03' E 011°27'8 8.2
2017-Mar-16 05:33N 55°01' E 011°41'7 7.3
2017-Mar-16 04:33N 54°58' E 011°53'22 6.5
2017-Mar-16 01:06N 54°50' E 012°29'51 6.7
2017-Mar-15 17:33N 55°03' E 013°55'7 6.8
2017-Mar-15 16:33N 55°05' E 014°06'6 5.8
2017-Mar-15 15:33N 55°07' E 014°16'5 5.3
2017-Mar-15 14:31N 55°06' E 014°25'6 5.8
2017-Mar-15 13:33N 55°06' E 014°35'4 3.8
2017-Mar-15 12:32N 55°06' E 014°42'0 0.0
2017-Mar-15 11:32N 55°06' E 014°42'0 0.0
2017-Mar-15 10:31N 55°06' E 014°42'0 0.0
2017-Mar-15 09:32N 55°06' E 014°42'0 0.0
2017-Mar-15 08:32N 55°06' E 014°42'0 0.0
2017-Mar-15 07:32N 55°06' E 014°42'0 0.0
2017-Mar-15 06:32N 55°06' E 014°42'0 0.0
2017-Mar-15 05:31N 55°06' E 014°42'0 0.0
2017-Mar-15 04:32N 55°06' E 014°42'0 0.0
2017-Mar-15 03:32N 55°06' E 014°42'0 0.0
2017-Mar-15 02:33N 55°06' E 014°42'0 0.0
2017-Mar-15 01:33N 55°06' E 014°42'0 0.0
2017-Mar-15 00:33N 55°06' E 014°42'0 0.0
2017-Mar-14 23:30N 55°06' E 014°42'0 0.0
2017-Mar-14 22:33N 55°06' E 014°42'0 0.1
2017-Mar-14 21:34N 55°06' E 014°42'9 8.5
2017-Mar-14 20:33N 55°06' E 014°27'9 9.3
2017-Mar-14 19:33N 55°08' E 014°11'9 8.9
2017-Mar-14 18:33N 55°09' E 013°55'37 9.1
2017-Mar-14 14:33N 55°15' E 012°52'8 7.8
2017-Mar-14 13:33N 55°18' E 012°39'7 7.2
2017-Mar-14 12:33N 55°25' E 012°40'8 7.9
2017-Mar-14 11:33N 55°33' E 012°42'9 8.9
2017-Mar-14 10:33N 55°42' E 012°41'8 7.9
2017-Mar-14 09:33N 55°50' E 012°41'8 7.6
2017-Mar-14 08:33N 55°57' E 012°38'7 6.7
2017-Mar-14 07:33N 56°04' E 012°37'  

Dump ship's entire track history